sensor_id;sensor_type;location;lat;lon;timestamp;P1;durP1;ratioP1;P2;durP2;ratioP2
33094;SDS011;19459;53.044;8.910;2022-11-25T00:01:24;48.00;;;21.13;;
33094;SDS011;19459;53.044;8.910;2022-11-25T00:03:53;49.20;;;21.38;;
33094;SDS011;19459;53.044;8.910;2022-11-25T00:06:25;46.28;;;20.27;;
33094;SDS011;19459;53.044;8.910;2022-11-25T00:08:54;46.47;;;20.60;;
33094;SDS011;19459;53.044;8.910;2022-11-25T00:11:26;52.53;;;21.42;;
33094;SDS011;19459;53.044;8.910;2022-11-25T00:13:53;44.55;;;20.70;;
33094;SDS011;19459;53.044;8.910;2022-11-25T00:16:20;55.78;;;21.17;;
33094;SDS011;19459;53.044;8.910;2022-11-25T00:18:52;54.75;;;21.90;;
33094;SDS011;19459;53.044;8.910;2022-11-25T00:21:20;43.58;;;19.35;;
33094;SDS011;19459;53.044;8.910;2022-11-25T00:23:56;47.80;;;21.38;;
33094;SDS011;19459;53.044;8.910;2022-11-25T00:26:28;49.67;;;22.02;;
33094;SDS011;19459;53.044;8.910;2022-11-25T00:28:59;43.85;;;19.90;;
33094;SDS011;19459;53.044;8.910;2022-11-25T00:31:29;57.70;;;21.02;;
33094;SDS011;19459;53.044;8.910;2022-11-25T00:33:57;48.10;;;20.70;;
33094;SDS011;19459;53.044;8.910;2022-11-25T00:36:28;45.30;;;19.75;;
33094;SDS011;19459;53.044;8.910;2022-11-25T00:38:58;51.55;;;21.55;;
33094;SDS011;19459;53.044;8.910;2022-11-25T00:41:30;54.58;;;22.08;;
33094;SDS011;19459;53.044;8.910;2022-11-25T00:44:18;46.50;;;20.63;;
33094;SDS011;19459;53.044;8.910;2022-11-25T00:47:04;51.30;;;20.75;;
33094;SDS011;19459;53.044;8.910;2022-11-25T00:49:50;49.53;;;21.27;;
33094;SDS011;19459;53.044;8.910;2022-11-25T00:52:26;46.83;;;20.60;;
33094;SDS011;19459;53.044;8.910;2022-11-25T00:54:52;52.03;;;20.00;;
33094;SDS011;19459;53.044;8.910;2022-11-25T00:57:19;54.35;;;19.30;;
33094;SDS011;19459;53.044;8.910;2022-11-25T00:59:47;47.03;;;19.40;;
33094;SDS011;19459;53.044;8.910;2022-11-25T01:02:16;52.63;;;19.42;;
33094;SDS011;19459;53.044;8.910;2022-11-25T01:04:43;37.20;;;19.08;;
33094;SDS011;19459;53.044;8.910;2022-11-25T01:07:10;52.30;;;17.95;;
33094;SDS011;19459;53.044;8.910;2022-11-25T01:09:36;47.17;;;18.98;;
33094;SDS011;19459;53.044;8.910;2022-11-25T01:12:02;45.22;;;17.20;;
33094;SDS011;19459;53.044;8.910;2022-11-25T01:14:28;36.85;;;16.92;;
33094;SDS011;19459;53.044;8.910;2022-11-25T01:16:54;34.97;;;16.42;;
33094;SDS011;19459;53.044;8.910;2022-11-25T01:19:20;40.75;;;13.48;;
33094;SDS011;19459;53.044;8.910;2022-11-25T01:21:46;35.35;;;14.65;;
33094;SDS011;19459;53.044;8.910;2022-11-25T01:24:13;48.33;;;17.70;;
33094;SDS011;19459;53.044;8.910;2022-11-25T01:26:40;45.88;;;16.70;;
33094;SDS011;19459;53.044;8.910;2022-11-25T01:29:10;34.83;;;14.68;;
33094;SDS011;19459;53.044;8.910;2022-11-25T01:31:39;40.30;;;16.30;;
33094;SDS011;19459;53.044;8.910;2022-11-25T01:34:07;36.42;;;15.18;;
33094;SDS011;19459;53.044;8.910;2022-11-25T01:36:43;43.92;;;15.27;;
33094;SDS011;19459;53.044;8.910;2022-11-25T01:39:12;30.45;;;13.48;;
33094;SDS011;19459;53.044;8.910;2022-11-25T01:41:41;37.80;;;14.65;;
33094;SDS011;19459;53.044;8.910;2022-11-25T01:44:14;30.40;;;12.93;;
33094;SDS011;19459;53.044;8.910;2022-11-25T01:46:57;31.45;;;14.27;;
33094;SDS011;19459;53.044;8.910;2022-11-25T01:49:53;26.40;;;13.17;;
33094;SDS011;19459;53.044;8.910;2022-11-25T01:54:59;37.33;;;14.48;;
33094;SDS011;19459;53.044;8.910;2022-11-25T01:57:33;34.15;;;15.15;;
33094;SDS011;19459;53.044;8.910;2022-11-25T02:00:19;30.70;;;13.13;;
33094;SDS011;19459;53.044;8.910;2022-11-25T02:02:46;34.45;;;14.15;;
33094;SDS011;19459;53.044;8.910;2022-11-25T02:05:16;34.47;;;14.43;;
33094;SDS011;19459;53.044;8.910;2022-11-25T02:08:08;29.50;;;14.25;;
33094;SDS011;19459;53.044;8.910;2022-11-25T02:10:35;35.72;;;14.80;;
33094;SDS011;19459;53.044;8.910;2022-11-25T02:13:00;32.65;;;13.75;;
33094;SDS011;19459;53.044;8.910;2022-11-25T02:15:27;39.30;;;14.45;;
33094;SDS011;19459;53.044;8.910;2022-11-25T02:17:55;37.15;;;15.00;;
33094;SDS011;19459;53.044;8.910;2022-11-25T02:20:21;48.40;;;14.93;;
33094;SDS011;19459;53.044;8.910;2022-11-25T02:22:56;33.92;;;14.05;;
33094;SDS011;19459;53.044;8.910;2022-11-25T02:25:38;35.95;;;14.18;;
33094;SDS011;19459;53.044;8.910;2022-11-25T02:28:08;34.20;;;14.57;;
33094;SDS011;19459;53.044;8.910;2022-11-25T02:30:42;39.97;;;15.52;;
33094;SDS011;19459;53.044;8.910;2022-11-25T02:33:08;32.92;;;16.27;;
33094;SDS011;19459;53.044;8.910;2022-11-25T02:38:13;47.08;;;15.35;;
33094;SDS011;19459;53.044;8.910;2022-11-25T02:43:15;30.40;;;13.55;;
33094;SDS011;19459;53.044;8.910;2022-11-25T02:48:24;33.65;;;13.85;;
33094;SDS011;19459;53.044;8.910;2022-11-25T02:50:52;40.72;;;17.35;;
33094;SDS011;19459;53.044;8.910;2022-11-25T02:53:19;41.75;;;14.85;;
33094;SDS011;19459;53.044;8.910;2022-11-25T02:55:45;28.73;;;12.93;;
33094;SDS011;19459;53.044;8.910;2022-11-25T02:58:11;35.13;;;14.43;;
33094;SDS011;19459;53.044;8.910;2022-11-25T03:00:37;33.97;;;14.52;;
33094;SDS011;19459;53.044;8.910;2022-11-25T03:03:04;36.92;;;13.65;;
33094;SDS011;19459;53.044;8.910;2022-11-25T03:05:30;39.85;;;13.15;;
33094;SDS011;19459;53.044;8.910;2022-11-25T03:07:56;40.13;;;13.80;;
33094;SDS011;19459;53.044;8.910;2022-11-25T03:10:22;34.78;;;13.70;;
33094;SDS011;19459;53.044;8.910;2022-11-25T03:12:48;39.55;;;15.40;;
33094;SDS011;19459;53.044;8.910;2022-11-25T03:15:14;50.50;;;16.67;;
33094;SDS011;19459;53.044;8.910;2022-11-25T03:17:40;31.48;;;13.95;;
33094;SDS011;19459;53.044;8.910;2022-11-25T03:20:06;38.60;;;13.13;;
33094;SDS011;19459;53.044;8.910;2022-11-25T03:22:34;37.70;;;13.60;;
33094;SDS011;19459;53.044;8.910;2022-11-25T03:25:00;43.38;;;14.07;;
33094;SDS011;19459;53.044;8.910;2022-11-25T03:27:26;31.92;;;12.95;;
33094;SDS011;19459;53.044;8.910;2022-11-25T03:29:52;36.90;;;14.25;;
33094;SDS011;19459;53.044;8.910;2022-11-25T03:32:17;32.20;;;13.75;;
33094;SDS011;19459;53.044;8.910;2022-11-25T03:34:43;28.90;;;13.70;;
33094;SDS011;19459;53.044;8.910;2022-11-25T03:37:09;28.75;;;12.93;;
33094;SDS011;19459;53.044;8.910;2022-11-25T03:39:35;31.00;;;12.40;;
33094;SDS011;19459;53.044;8.910;2022-11-25T03:42:00;33.47;;;13.18;;
33094;SDS011;19459;53.044;8.910;2022-11-25T03:44:26;31.30;;;11.90;;
33094;SDS011;19459;53.044;8.910;2022-11-25T03:46:52;31.30;;;12.98;;
33094;SDS011;19459;53.044;8.910;2022-11-25T03:49:18;34.33;;;12.50;;
33094;SDS011;19459;53.044;8.910;2022-11-25T03:51:45;30.23;;;13.60;;
33094;SDS011;19459;53.044;8.910;2022-11-25T03:54:12;30.40;;;13.65;;
33094;SDS011;19459;53.044;8.910;2022-11-25T03:56:38;39.10;;;12.90;;
33094;SDS011;19459;53.044;8.910;2022-11-25T03:59:04;32.92;;;13.35;;
33094;SDS011;19459;53.044;8.910;2022-11-25T04:01:30;28.23;;;13.85;;
33094;SDS011;19459;53.044;8.910;2022-11-25T04:03:56;36.83;;;14.57;;
33094;SDS011;19459;53.044;8.910;2022-11-25T04:06:21;41.08;;;14.25;;
33094;SDS011;19459;53.044;8.910;2022-11-25T04:08:48;36.75;;;14.05;;
33094;SDS011;19459;53.044;8.910;2022-11-25T04:11:15;30.98;;;14.48;;
33094;SDS011;19459;53.044;8.910;2022-11-25T04:13:41;27.85;;;13.40;;
33094;SDS011;19459;53.044;8.910;2022-11-25T04:16:13;34.80;;;13.77;;
33094;SDS011;19459;53.044;8.910;2022-11-25T04:18:46;31.90;;;13.32;;
33094;SDS011;19459;53.044;8.910;2022-11-25T04:21:12;35.60;;;13.80;;
33094;SDS011;19459;53.044;8.910;2022-11-25T04:23:38;37.55;;;13.38;;
33094;SDS011;19459;53.044;8.910;2022-11-25T04:26:03;32.95;;;12.65;;
33094;SDS011;19459;53.044;8.910;2022-11-25T04:28:30;35.00;;;13.45;;
33094;SDS011;19459;53.044;8.910;2022-11-25T04:30:56;28.17;;;14.02;;
33094;SDS011;19459;53.044;8.910;2022-11-25T04:33:21;33.22;;;12.32;;
33094;SDS011;19459;53.044;8.910;2022-11-25T04:35:47;38.53;;;13.68;;
33094;SDS011;19459;53.044;8.910;2022-11-25T04:38:13;30.13;;;13.60;;
33094;SDS011;19459;53.044;8.910;2022-11-25T04:40:38;25.83;;;11.25;;
33094;SDS011;19459;53.044;8.910;2022-11-25T04:43:04;33.38;;;14.70;;
33094;SDS011;19459;53.044;8.910;2022-11-25T04:45:30;24.02;;;11.60;;
33094;SDS011;19459;53.044;8.910;2022-11-25T04:47:56;26.83;;;13.90;;
33094;SDS011;19459;53.044;8.910;2022-11-25T04:50:22;40.95;;;13.57;;
33094;SDS011;19459;53.044;8.910;2022-11-25T04:52:48;33.38;;;13.18;;
33094;SDS011;19459;53.044;8.910;2022-11-25T04:55:14;31.27;;;13.02;;
33094;SDS011;19459;53.044;8.910;2022-11-25T04:57:40;26.95;;;11.90;;
33094;SDS011;19459;53.044;8.910;2022-11-25T05:00:06;25.20;;;12.25;;
33094;SDS011;19459;53.044;8.910;2022-11-25T05:02:33;31.67;;;12.43;;
33094;SDS011;19459;53.044;8.910;2022-11-25T05:04:59;27.15;;;11.85;;
33094;SDS011;19459;53.044;8.910;2022-11-25T05:07:26;25.55;;;11.50;;
33094;SDS011;19459;53.044;8.910;2022-11-25T05:09:52;24.75;;;10.55;;
33094;SDS011;19459;53.044;8.910;2022-11-25T05:12:20;25.23;;;10.13;;
33094;SDS011;19459;53.044;8.910;2022-11-25T05:14:48;28.90;;;12.13;;
33094;SDS011;19459;53.044;8.910;2022-11-25T05:17:15;37.78;;;12.25;;
33094;SDS011;19459;53.044;8.910;2022-11-25T05:19:44;29.15;;;12.00;;
33094;SDS011;19459;53.044;8.910;2022-11-25T05:22:11;29.25;;;11.68;;
33094;SDS011;19459;53.044;8.910;2022-11-25T05:24:38;25.98;;;11.63;;
33094;SDS011;19459;53.044;8.910;2022-11-25T05:27:04;29.35;;;13.20;;
33094;SDS011;19459;53.044;8.910;2022-11-25T05:29:31;31.60;;;13.02;;
33094;SDS011;19459;53.044;8.910;2022-11-25T05:31:56;31.13;;;13.18;;
33094;SDS011;19459;53.044;8.910;2022-11-25T05:34:22;24.98;;;10.23;;
33094;SDS011;19459;53.044;8.910;2022-11-25T05:36:48;26.08;;;11.60;;
33094;SDS011;19459;53.044;8.910;2022-11-25T05:39:15;29.20;;;12.23;;
33094;SDS011;19459;53.044;8.910;2022-11-25T05:41:41;31.50;;;11.52;;
33094;SDS011;19459;53.044;8.910;2022-11-25T05:44:07;24.83;;;11.82;;
33094;SDS011;19459;53.044;8.910;2022-11-25T05:46:33;25.35;;;10.73;;
33094;SDS011;19459;53.044;8.910;2022-11-25T05:48:59;32.25;;;11.95;;
33094;SDS011;19459;53.044;8.910;2022-11-25T05:51:24;33.95;;;11.15;;
33094;SDS011;19459;53.044;8.910;2022-11-25T05:53:52;20.77;;;10.60;;
33094;SDS011;19459;53.044;8.910;2022-11-25T05:56:18;30.27;;;10.57;;
33094;SDS011;19459;53.044;8.910;2022-11-25T05:58:44;25.17;;;10.10;;
33094;SDS011;19459;53.044;8.910;2022-11-25T06:01:11;23.45;;;10.23;;
33094;SDS011;19459;53.044;8.910;2022-11-25T06:03:39;27.95;;;11.32;;
33094;SDS011;19459;53.044;8.910;2022-11-25T06:06:06;28.90;;;10.55;;
33094;SDS011;19459;53.044;8.910;2022-11-25T06:08:33;22.85;;;8.63;;
33094;SDS011;19459;53.044;8.910;2022-11-25T06:11:08;24.73;;;9.25;;
33094;SDS011;19459;53.044;8.910;2022-11-25T06:13:37;26.30;;;9.02;;
33094;SDS011;19459;53.044;8.910;2022-11-25T06:16:11;27.02;;;9.70;;
33094;SDS011;19459;53.044;8.910;2022-11-25T06:18:42;24.58;;;9.07;;
33094;SDS011;19459;53.044;8.910;2022-11-25T06:21:09;27.33;;;9.57;;
33094;SDS011;19459;53.044;8.910;2022-11-25T06:23:36;21.83;;;8.25;;
33094;SDS011;19459;53.044;8.910;2022-11-25T06:26:04;28.83;;;8.95;;
33094;SDS011;19459;53.044;8.910;2022-11-25T06:28:32;27.92;;;8.93;;
33094;SDS011;19459;53.044;8.910;2022-11-25T06:31:08;29.38;;;8.25;;
33094;SDS011;19459;53.044;8.910;2022-11-25T06:33:40;20.30;;;8.10;;
33094;SDS011;19459;53.044;8.910;2022-11-25T06:36:07;21.25;;;8.32;;
33094;SDS011;19459;53.044;8.910;2022-11-25T06:38:40;21.30;;;9.25;;
33094;SDS011;19459;53.044;8.910;2022-11-25T06:41:17;26.02;;;8.05;;
33094;SDS011;19459;53.044;8.910;2022-11-25T06:43:43;31.80;;;10.45;;
33094;SDS011;19459;53.044;8.910;2022-11-25T06:46:11;24.08;;;7.97;;
33094;SDS011;19459;53.044;8.910;2022-11-25T06:48:40;18.05;;;7.63;;
33094;SDS011;19459;53.044;8.910;2022-11-25T06:51:07;26.90;;;8.13;;
33094;SDS011;19459;53.044;8.910;2022-11-25T06:53:36;27.17;;;7.45;;
33094;SDS011;19459;53.044;8.910;2022-11-25T06:56:06;19.55;;;8.52;;
33094;SDS011;19459;53.044;8.910;2022-11-25T06:58:42;21.48;;;7.80;;
33094;SDS011;19459;53.044;8.910;2022-11-25T07:01:13;19.85;;;7.88;;
33094;SDS011;19459;53.044;8.910;2022-11-25T07:03:49;29.67;;;8.68;;
33094;SDS011;19459;53.044;8.910;2022-11-25T07:06:18;22.00;;;7.25;;
33094;SDS011;19459;53.044;8.910;2022-11-25T07:08:45;16.08;;;6.80;;
33094;SDS011;19459;53.044;8.910;2022-11-25T07:11:16;19.77;;;7.68;;
33094;SDS011;19459;53.044;8.910;2022-11-25T07:13:43;23.73;;;7.15;;
33094;SDS011;19459;53.044;8.910;2022-11-25T07:16:10;20.83;;;7.82;;
33094;SDS011;19459;53.044;8.910;2022-11-25T07:18:37;21.20;;;8.35;;
33094;SDS011;19459;53.044;8.910;2022-11-25T07:21:09;22.15;;;7.47;;
33094;SDS011;19459;53.044;8.910;2022-11-25T07:23:38;22.80;;;9.07;;
33094;SDS011;19459;53.044;8.910;2022-11-25T07:26:09;25.67;;;8.35;;
33094;SDS011;19459;53.044;8.910;2022-11-25T07:28:36;25.90;;;7.28;;
33094;SDS011;19459;53.044;8.910;2022-11-25T07:31:04;29.35;;;8.45;;
33094;SDS011;19459;53.044;8.910;2022-11-25T07:33:32;27.08;;;7.78;;
33094;SDS011;19459;53.044;8.910;2022-11-25T07:36:05;26.67;;;7.32;;
33094;SDS011;19459;53.044;8.910;2022-11-25T07:38:33;26.00;;;8.50;;
33094;SDS011;19459;53.044;8.910;2022-11-25T07:41:10;21.80;;;8.25;;
33094;SDS011;19459;53.044;8.910;2022-11-25T07:43:39;23.60;;;8.80;;
33094;SDS011;19459;53.044;8.910;2022-11-25T07:48:51;36.45;;;10.20;;
33094;SDS011;19459;53.044;8.910;2022-11-25T07:51:20;28.42;;;10.05;;
33094;SDS011;19459;53.044;8.910;2022-11-25T07:53:57;19.67;;;8.73;;
33094;SDS011;19459;53.044;8.910;2022-11-25T07:56:25;29.42;;;9.50;;
33094;SDS011;19459;53.044;8.910;2022-11-25T07:58:52;25.33;;;8.45;;
33094;SDS011;19459;53.044;8.910;2022-11-25T08:01:19;31.63;;;8.20;;
33094;SDS011;19459;53.044;8.910;2022-11-25T08:03:45;30.63;;;8.35;;
33094;SDS011;19459;53.044;8.910;2022-11-25T08:06:15;28.92;;;7.43;;
33094;SDS011;19459;53.044;8.910;2022-11-25T08:08:43;29.92;;;8.98;;
33094;SDS011;19459;53.044;8.910;2022-11-25T08:11:11;31.42;;;8.35;;
33094;SDS011;19459;53.044;8.910;2022-11-25T08:13:39;23.00;;;7.55;;
33094;SDS011;19459;53.044;8.910;2022-11-25T08:16:05;30.50;;;8.18;;
33094;SDS011;19459;53.044;8.910;2022-11-25T08:18:32;23.50;;;8.85;;
33094;SDS011;19459;53.044;8.910;2022-11-25T08:20:58;24.67;;;8.75;;
33094;SDS011;19459;53.044;8.910;2022-11-25T08:23:31;26.67;;;10.77;;
33094;SDS011;19459;53.044;8.910;2022-11-25T08:26:02;27.17;;;8.43;;
33094;SDS011;19459;53.044;8.910;2022-11-25T08:28:30;30.50;;;9.32;;
33094;SDS011;19459;53.044;8.910;2022-11-25T08:31:00;31.27;;;9.57;;
33094;SDS011;19459;53.044;8.910;2022-11-25T08:33:37;35.70;;;10.60;;
33094;SDS011;19459;53.044;8.910;2022-11-25T08:36:06;32.78;;;9.32;;
33094;SDS011;19459;53.044;8.910;2022-11-25T08:38:33;33.33;;;10.57;;
33094;SDS011;19459;53.044;8.910;2022-11-25T08:40:59;24.23;;;7.50;;
33094;SDS011;19459;53.044;8.910;2022-11-25T08:43:25;22.95;;;8.48;;
33094;SDS011;19459;53.044;8.910;2022-11-25T08:45:51;33.38;;;9.68;;
33094;SDS011;19459;53.044;8.910;2022-11-25T08:48:18;29.73;;;8.10;;
33094;SDS011;19459;53.044;8.910;2022-11-25T08:50:47;28.38;;;7.70;;
33094;SDS011;19459;53.044;8.910;2022-11-25T08:53:16;27.67;;;8.68;;
33094;SDS011;19459;53.044;8.910;2022-11-25T08:55:43;35.28;;;8.70;;
33094;SDS011;19459;53.044;8.910;2022-11-25T08:58:09;24.70;;;7.72;;
33094;SDS011;19459;53.044;8.910;2022-11-25T09:00:37;20.40;;;9.38;;
33094;SDS011;19459;53.044;8.910;2022-11-25T09:03:06;26.48;;;9.00;;
33094;SDS011;19459;53.044;8.910;2022-11-25T09:05:33;27.08;;;9.25;;
33094;SDS011;19459;53.044;8.910;2022-11-25T09:08:02;36.88;;;10.20;;
33094;SDS011;19459;53.044;8.910;2022-11-25T09:10:29;24.27;;;8.32;;
33094;SDS011;19459;53.044;8.910;2022-11-25T09:12:56;25.80;;;8.10;;
33094;SDS011;19459;53.044;8.910;2022-11-25T09:15:22;23.63;;;8.00;;
33094;SDS011;19459;53.044;8.910;2022-11-25T09:17:48;35.08;;;9.05;;
33094;SDS011;19459;53.044;8.910;2022-11-25T09:20:22;38.53;;;14.77;;
33094;SDS011;19459;53.044;8.910;2022-11-25T09:22:47;32.83;;;14.18;;
33094;SDS011;19459;53.044;8.910;2022-11-25T09:25:13;26.75;;;8.70;;
33094;SDS011;19459;53.044;8.910;2022-11-25T09:27:39;28.23;;;11.98;;
33094;SDS011;19459;53.044;8.910;2022-11-25T09:30:05;23.13;;;10.27;;
33094;SDS011;19459;53.044;8.910;2022-11-25T09:32:32;33.30;;;13.10;;
33094;SDS011;19459;53.044;8.910;2022-11-25T09:34:57;23.52;;;8.48;;
33094;SDS011;19459;53.044;8.910;2022-11-25T09:37:23;28.67;;;9.27;;
33094;SDS011;19459;53.044;8.910;2022-11-25T09:39:50;20.33;;;8.38;;
33094;SDS011;19459;53.044;8.910;2022-11-25T09:46:30;23.98;;;9.57;;
33094;SDS011;19459;53.044;8.910;2022-11-25T09:54:37;23.50;;;8.18;;
33094;SDS011;19459;53.044;8.910;2022-11-25T09:57:26;17.52;;;8.88;;
33094;SDS011;19459;53.044;8.910;2022-11-25T10:05:41;29.35;;;10.02;;
33094;SDS011;19459;53.044;8.910;2022-11-25T10:08:17;22.15;;;8.70;;
33094;SDS011;19459;53.044;8.910;2022-11-25T10:10:52;32.03;;;9.45;;
33094;SDS011;19459;53.044;8.910;2022-11-25T10:13:59;21.90;;;9.52;;
33094;SDS011;19459;53.044;8.910;2022-11-25T10:19:50;25.08;;;8.13;;
33094;SDS011;19459;53.044;8.910;2022-11-25T10:22:32;22.55;;;8.85;;
33094;SDS011;19459;53.044;8.910;2022-11-25T10:25:04;25.25;;;8.35;;
33094;SDS011;19459;53.044;8.910;2022-11-25T10:33:40;29.50;;;8.65;;
33094;SDS011;19459;53.044;8.910;2022-11-25T10:41:42;26.23;;;8.07;;
33094;SDS011;19459;53.044;8.910;2022-11-25T10:44:37;28.65;;;8.48;;
33094;SDS011;19459;53.044;8.910;2022-11-25T10:53:16;26.30;;;8.82;;
33094;SDS011;19459;53.044;8.910;2022-11-25T11:01:00;28.73;;;8.73;;
33094;SDS011;19459;53.044;8.910;2022-11-25T11:04:03;27.13;;;9.25;;
33094;SDS011;19459;53.044;8.910;2022-11-25T11:06:40;24.33;;;8.73;;
33094;SDS011;19459;53.044;8.910;2022-11-25T11:20:52;26.35;;;8.98;;
33094;SDS011;19459;53.044;8.910;2022-11-25T11:23:21;24.50;;;9.35;;
33094;SDS011;19459;53.044;8.910;2022-11-25T11:26:01;33.80;;;10.60;;
33094;SDS011;19459;53.044;8.910;2022-11-25T11:31:18;29.85;;;10.55;;
33094;SDS011;19459;53.044;8.910;2022-11-25T11:34:08;28.77;;;10.80;;
33094;SDS011;19459;53.044;8.910;2022-11-25T12:00:07;25.98;;;10.93;;
33094;SDS011;19459;53.044;8.910;2022-11-25T12:05:17;30.80;;;12.35;;
33094;SDS011;19459;53.044;8.910;2022-11-25T12:10:39;27.20;;;10.95;;
33094;SDS011;19459;53.044;8.910;2022-11-25T12:16:25;40.25;;;13.20;;
33094;SDS011;19459;53.044;8.910;2022-11-25T12:18:58;29.92;;;12.98;;
33094;SDS011;19459;53.044;8.910;2022-11-25T12:21:31;25.48;;;13.43;;
33094;SDS011;19459;53.044;8.910;2022-11-25T12:30:06;28.98;;;13.20;;
33094;SDS011;19459;53.044;8.910;2022-11-25T12:35:37;35.30;;;15.77;;
33094;SDS011;19459;53.044;8.910;2022-11-25T12:43:54;34.40;;;14.25;;
33094;SDS011;19459;53.044;8.910;2022-11-25T12:46:47;23.63;;;15.30;;
33094;SDS011;19459;53.044;8.910;2022-11-25T13:17:41;33.45;;;17.33;;
33094;SDS011;19459;53.044;8.910;2022-11-25T13:25:41;29.13;;;17.90;;
33094;SDS011;19459;53.044;8.910;2022-11-25T13:30:53;27.65;;;16.67;;
33094;SDS011;19459;53.044;8.910;2022-11-25T13:35:49;32.35;;;18.23;;
33094;SDS011;19459;53.044;8.910;2022-11-25T13:38:36;30.50;;;19.35;;
33094;SDS011;19459;53.044;8.910;2022-11-25T13:41:36;29.48;;;17.98;;
33094;SDS011;19459;53.044;8.910;2022-11-25T13:46:59;29.13;;;16.38;;
33094;SDS011;19459;53.044;8.910;2022-11-25T13:49:52;33.25;;;20.02;;
33094;SDS011;19459;53.044;8.910;2022-11-25T13:52:27;41.47;;;19.88;;
33094;SDS011;19459;53.044;8.910;2022-11-25T13:55:03;35.45;;;20.77;;
33094;SDS011;19459;53.044;8.910;2022-11-25T13:57:44;35.67;;;20.57;;
33094;SDS011;19459;53.044;8.910;2022-11-25T14:02:39;44.22;;;21.92;;
33094;SDS011;19459;53.044;8.910;2022-11-25T14:10:59;35.28;;;19.83;;
33094;SDS011;19459;53.044;8.910;2022-11-25T14:25:54;42.20;;;21.45;;
33094;SDS011;19459;53.044;8.910;2022-11-25T14:28:29;45.20;;;22.40;;
33094;SDS011;19459;53.044;8.910;2022-11-25T14:31:05;48.28;;;26.40;;
33094;SDS011;19459;53.044;8.910;2022-11-25T14:33:37;45.00;;;23.80;;
33094;SDS011;19459;53.044;8.910;2022-11-25T14:36:21;47.40;;;24.07;;
33094;SDS011;19459;53.044;8.910;2022-11-25T14:39:18;41.25;;;22.02;;
33094;SDS011;19459;53.044;8.910;2022-11-25T14:42:04;36.80;;;21.00;;
33094;SDS011;19459;53.044;8.910;2022-11-25T14:44:48;32.70;;;18.90;;
33094;SDS011;19459;53.044;8.910;2022-11-25T14:47:20;33.90;;;20.05;;
33094;SDS011;19459;53.044;8.910;2022-11-25T14:49:53;41.90;;;18.38;;
33094;SDS011;19459;53.044;8.910;2022-11-25T14:54:48;37.47;;;19.02;;
33094;SDS011;19459;53.044;8.910;2022-11-25T14:57:20;36.67;;;18.30;;
33094;SDS011;19459;53.044;8.910;2022-11-25T14:59:49;34.08;;;18.77;;
33094;SDS011;19459;53.044;8.910;2022-11-25T15:05:25;29.30;;;17.52;;
33094;SDS011;19459;53.044;8.910;2022-11-25T15:10:32;36.72;;;17.77;;
33094;SDS011;19459;53.044;8.910;2022-11-25T15:13:29;33.28;;;18.00;;
33094;SDS011;19459;53.044;8.910;2022-11-25T15:21:26;32.55;;;18.40;;
33094;SDS011;19459;53.044;8.910;2022-11-25T15:23:55;34.60;;;18.83;;
33094;SDS011;19459;53.044;8.910;2022-11-25T15:26:26;38.22;;;19.73;;
33094;SDS011;19459;53.044;8.910;2022-11-25T15:28:58;34.28;;;18.13;;
33094;SDS011;19459;53.044;8.910;2022-11-25T15:31:43;34.33;;;18.23;;
33094;SDS011;19459;53.044;8.910;2022-11-25T15:34:11;37.05;;;18.00;;
33094;SDS011;19459;53.044;8.910;2022-11-25T15:36:38;33.83;;;19.00;;
33094;SDS011;19459;53.044;8.910;2022-11-25T15:39:12;38.72;;;19.40;;
33094;SDS011;19459;53.044;8.910;2022-11-25T15:44:33;40.15;;;19.05;;
33094;SDS011;19459;53.044;8.910;2022-11-25T15:47:20;42.10;;;18.70;;
33094;SDS011;19459;53.044;8.910;2022-11-25T15:50:21;31.23;;;19.20;;
33094;SDS011;19459;53.044;8.910;2022-11-25T15:52:53;31.13;;;18.33;;
33094;SDS011;19459;53.044;8.910;2022-11-25T15:55:32;36.33;;;18.42;;
33094;SDS011;19459;53.044;8.910;2022-11-25T15:58:06;39.05;;;17.70;;
33094;SDS011;19459;53.044;8.910;2022-11-25T16:01:02;36.50;;;17.77;;
33094;SDS011;19459;53.044;8.910;2022-11-25T16:03:29;35.05;;;18.10;;
33094;SDS011;19459;53.044;8.910;2022-11-25T16:05:57;29.17;;;18.60;;
33094;SDS011;19459;53.044;8.910;2022-11-25T16:08:34;38.47;;;18.67;;
33094;SDS011;19459;53.044;8.910;2022-11-25T16:11:15;36.88;;;18.20;;
33094;SDS011;19459;53.044;8.910;2022-11-25T16:13:43;37.65;;;21.67;;
33094;SDS011;19459;53.044;8.910;2022-11-25T16:21:26;39.08;;;22.02;;
33094;SDS011;19459;53.044;8.910;2022-11-25T16:24:07;31.50;;;19.67;;
33094;SDS011;19459;53.044;8.910;2022-11-25T16:26:50;35.45;;;17.90;;
33094;SDS011;19459;53.044;8.910;2022-11-25T16:29:34;36.38;;;18.63;;
33094;SDS011;19459;53.044;8.910;2022-11-25T16:32:12;32.75;;;18.58;;
33094;SDS011;19459;53.044;8.910;2022-11-25T16:34:40;36.47;;;17.58;;
33094;SDS011;19459;53.044;8.910;2022-11-25T16:37:07;29.25;;;18.55;;
33094;SDS011;19459;53.044;8.910;2022-11-25T16:39:33;40.35;;;17.70;;
33094;SDS011;19459;53.044;8.910;2022-11-25T16:41:59;36.00;;;16.90;;
33094;SDS011;19459;53.044;8.910;2022-11-25T16:44:29;29.23;;;17.20;;
33094;SDS011;19459;53.044;8.910;2022-11-25T16:46:59;36.35;;;18.73;;
33094;SDS011;19459;53.044;8.910;2022-11-25T16:49:28;27.30;;;16.65;;
33094;SDS011;19459;53.044;8.910;2022-11-25T16:51:55;25.05;;;15.52;;
33094;SDS011;19459;53.044;8.910;2022-11-25T16:54:22;25.42;;;15.52;;
33094;SDS011;19459;53.044;8.910;2022-11-25T16:56:48;31.83;;;15.70;;
33094;SDS011;19459;53.044;8.910;2022-11-25T16:59:18;34.92;;;15.20;;
33094;SDS011;19459;53.044;8.910;2022-11-25T17:01:56;42.45;;;16.58;;
33094;SDS011;19459;53.044;8.910;2022-11-25T17:04:23;31.02;;;15.48;;
33094;SDS011;19459;53.044;8.910;2022-11-25T17:06:49;28.73;;;13.60;;
33094;SDS011;19459;53.044;8.910;2022-11-25T17:09:15;34.58;;;15.70;;
33094;SDS011;19459;53.044;8.910;2022-11-25T17:11:45;30.27;;;15.05;;
33094;SDS011;19459;53.044;8.910;2022-11-25T17:14:26;39.55;;;16.02;;
33094;SDS011;19459;53.044;8.910;2022-11-25T17:16:56;46.95;;;17.10;;
33094;SDS011;19459;53.044;8.910;2022-11-25T17:19:24;30.02;;;13.90;;
33094;SDS011;19459;53.044;8.910;2022-11-25T17:21:49;26.52;;;14.43;;
33094;SDS011;19459;53.044;8.910;2022-11-25T17:24:16;32.00;;;13.98;;
33094;SDS011;19459;53.044;8.910;2022-11-25T17:26:49;29.70;;;12.77;;
33094;SDS011;19459;53.044;8.910;2022-11-25T17:29:20;27.13;;;14.25;;
33094;SDS011;19459;53.044;8.910;2022-11-25T17:32:02;27.27;;;14.82;;
33094;SDS011;19459;53.044;8.910;2022-11-25T17:34:28;29.33;;;13.77;;
33094;SDS011;19459;53.044;8.910;2022-11-25T17:36:54;30.00;;;13.57;;
33094;SDS011;19459;53.044;8.910;2022-11-25T17:39:21;31.65;;;14.13;;
33094;SDS011;19459;53.044;8.910;2022-11-25T17:41:47;26.40;;;12.68;;
33094;SDS011;19459;53.044;8.910;2022-11-25T17:44:15;34.42;;;14.82;;
33094;SDS011;19459;53.044;8.910;2022-11-25T17:46:55;32.95;;;15.35;;
33094;SDS011;19459;53.044;8.910;2022-11-25T17:49:22;26.13;;;12.68;;
33094;SDS011;19459;53.044;8.910;2022-11-25T17:51:49;33.65;;;13.98;;
33094;SDS011;19459;53.044;8.910;2022-11-25T17:54:15;23.67;;;12.10;;
33094;SDS011;19459;53.044;8.910;2022-11-25T17:56:42;22.60;;;12.05;;
33094;SDS011;19459;53.044;8.910;2022-11-25T17:59:21;30.27;;;13.88;;
33094;SDS011;19459;53.044;8.910;2022-11-25T18:01:50;33.05;;;12.55;;
33094;SDS011;19459;53.044;8.910;2022-11-25T18:04:20;22.58;;;12.82;;
33094;SDS011;19459;53.044;8.910;2022-11-25T18:06:52;30.38;;;14.35;;